Time;durP1;ratioP1;P1;durP2;ratioP2;P2;SDS_P1;SDS_P2;PMS_P1;PMS_P2;Temp;Humidity;BMP_temperature;BMP_pressure;BME280_temperature;BME280_humidity;BME280_pressure;Samples;Min_cycle;Max_cycle;Signal;HPM_P1;HPM_P2
2022/11/21 00:00:43;;;;;;;1.20;1.20;;;17.50;73.60;;;;;;5034259;28;43365;-74
2022/11/21 00:03:11;;;;;;;1.20;1.20;;;17.60;73.20;;;;;;5034043;28;43932;-74
2022/11/21 00:05:40;;;;;;;1.10;1.10;;;17.80;72.80;;;;;;5052880;28;43825;-74
2022/11/21 00:08:08;;;;;;;1.00;1.00;;;17.90;72.30;;;;;;5049605;28;43457;-74
2022/11/21 00:10:36;;;;;;;1.37;1.37;;;18.00;71.90;;;;;;5034366;28;43400;-75
2022/11/21 00:13:05;;;;;;;1.23;1.23;;;18.00;71.80;;;;;;5047323;28;43610;-74
2022/11/21 00:15:34;;;;;;;1.17;1.17;;;17.90;71.90;;;;;;5051295;28;43607;-73
2022/11/21 00:18:02;;;;;;;1.10;1.10;;;17.80;72.00;;;;;;5049843;28;43511;-74
2022/11/21 00:20:30;;;;;;;1.20;1.20;;;17.70;72.20;;;;;;5032798;28;43392;-75
2022/11/21 00:22:58;;;;;;;1.30;1.30;;;17.60;72.40;;;;;;5053503;28;43494;-74
2022/11/21 00:25:27;;;;;;;1.10;1.10;;;17.60;73.00;;;;;;5036008;28;46041;-74
2022/11/21 00:27:54;;;;;;;1.10;1.10;;;17.60;72.90;;;;;;5049941;28;43547;-74
2022/11/21 00:30:24;;;;;;;1.17;1.17;;;17.60;72.90;;;;;;5050377;28;43480;-75
2022/11/21 00:32:52;;;;;;;1.07;1.07;;;17.50;72.90;;;;;;5043602;28;43485;-73
2022/11/21 00:35:20;;;;;;;1.20;1.20;;;17.50;73.00;;;;;;5052830;28;43899;-74
2022/11/21 00:37:49;;;;;;;1.30;1.30;;;17.50;73.20;;;;;;5030330;28;44645;-74
2022/11/21 00:40:17;;;;;;;1.20;1.20;;;17.50;73.50;;;;;;5050826;28;43536;-74
2022/11/21 00:42:45;;;;;;;1.10;1.10;;;17.50;73.30;;;;;;5053604;28;43456;-75
2022/11/21 00:45:13;;;;;;;1.20;1.20;;;17.50;73.20;;;;;;5033278;28;45733;-74
2022/11/21 00:47:49;;;;;;;1.20;1.20;;;17.50;73.20;;;;;;5048766;28;43411;-73
2022/11/21 00:50:17;;;;;;;1.13;1.13;;;17.50;73.30;;;;;;5035943;28;43425;-75
2022/11/21 00:52:45;;;;;;;1.33;1.30;;;17.40;73.20;;;;;;5051736;28;43532;-75
2022/11/21 00:55:13;;;;;;;1.10;1.10;;;17.40;73.60;;;;;;5049560;28;43852;-75
2022/11/21 00:57:41;;;;;;;1.10;1.10;;;17.50;74.30;;;;;;5055151;28;43567;-75
2022/11/21 01:00:10;;;;;;;1.10;1.10;;;17.60;73.20;;;;;;5051644;28;43988;-74
2022/11/21 01:02:38;;;;;;;1.20;1.20;;;17.80;72.80;;;;;;5039253;28;43531;-74
2022/11/21 01:05:08;;;;;;;1.20;1.20;;;17.90;72.30;;;;;;5031714;28;45946;-74
2022/11/21 01:07:36;;;;;;;1.10;1.10;;;17.90;72.10;;;;;;5052755;28;43428;-73
2022/11/21 01:10:06;;;;;;;1.10;1.10;;;17.80;71.90;;;;;;5037326;28;43342;-74
2022/11/21 01:12:34;;;;;;;1.10;1.10;;;17.80;72.10;;;;;;5049390;28;43468;-74
2022/11/21 01:15:02;;;;;;;1.10;1.10;;;17.70;72.30;;;;;;5056529;28;43553;-74
2022/11/21 01:17:32;;;;;;;1.20;1.20;;;17.60;72.50;;;;;;5040906;28;44420;-74
2022/11/21 01:20:00;;;;;;;1.20;1.20;;;17.60;72.90;;;;;;5058388;28;43634;-75
2022/11/21 01:22:29;;;;;;;1.00;1.00;;;17.50;73.80;;;;;;5045189;28;43467;-75
2022/11/21 01:24:57;;;;;;;0.83;0.83;;;17.50;73.70;;;;;;5056035;28;43601;-75
2022/11/21 01:27:25;;;;;;;1.03;1.03;;;17.50;73.00;;;;;;5037192;28;45003;-74
2022/11/21 01:29:53;;;;;;;1.07;1.07;;;17.50;73.10;;;;;;5037570;28;43501;-75
2022/11/21 01:32:21;;;;;;;1.10;1.10;;;17.50;73.20;;;;;;5039375;28;43636;-74
2022/11/21 01:34:49;;;;;;;1.00;1.00;;;17.40;73.30;;;;;;5048586;28;43620;-74
2022/11/21 01:37:17;;;;;;;1.00;1.00;;;17.40;73.50;;;;;;5054167;28;43396;-75
2022/11/21 01:39:46;;;;;;;1.20;1.20;;;17.50;73.50;;;;;;5050272;28;43815;-74
2022/11/21 01:42:14;;;;;;;0.93;0.93;;;17.40;73.20;;;;;;5054601;28;43443;-75
2022/11/21 01:44:47;;;;;;;0.90;0.90;;;17.40;73.30;;;;;;5057313;28;43933;-75
2022/11/21 01:47:16;;;;;;;0.90;0.90;;;17.40;73.30;;;;;;5054290;28;43469;-75
2022/11/21 01:49:43;;;;;;;1.10;1.10;;;17.40;73.50;;;;;;5050174;28;43816;-75
2022/11/21 01:52:13;;;;;;;1.10;1.10;;;17.40;73.80;;;;;;5049954;28;43456;-74
2022/11/21 01:54:41;;;;;;;1.20;1.20;;;17.50;73.70;;;;;;5049533;28;43959;-75
2022/11/21 01:57:12;;;;;;;1.00;1.00;;;17.60;73.20;;;;;;5049164;28;43326;-74
2022/11/21 01:59:42;;;;;;;0.93;0.93;;;17.80;72.70;;;;;;5052250;28;43419;-74
2022/11/21 02:02:11;;;;;;;0.90;0.90;;;17.90;72.20;;;;;;5038286;28;43581;-73
2022/11/21 02:04:39;;;;;;;1.07;1.07;;;17.90;72.00;;;;;;5036567;28;46040;-73
2022/11/21 02:07:07;;;;;;;1.00;1.00;;;17.80;72.00;;;;;;5057283;28;43510;-71
2022/11/21 02:09:36;;;;;;;0.90;0.90;;;17.80;72.10;;;;;;5056286;28;43353;-72
2022/11/21 02:12:06;;;;;;;1.10;1.10;;;17.70;72.30;;;;;;5044239;28;43664;-74
2022/11/21 02:14:35;;;;;;;1.00;1.00;;;17.60;72.50;;;;;;5060648;28;43603;-72
2022/11/21 02:17:05;;;;;;;0.90;0.90;;;17.60;72.80;;;;;;5036705;28;44621;-72
2022/11/21 02:19:34;;;;;;;0.90;0.90;;;17.50;73.20;;;;;;5055720;28;43431;-73
2022/11/21 02:22:05;;;;;;;0.90;0.90;;;17.50;73.00;;;;;;5051543;28;43921;-73
2022/11/21 02:24:35;;;;;;;1.13;1.13;;;17.50;73.00;;;;;;5057883;28;43882;-72
2022/11/21 02:27:04;;;;;;;0.90;0.90;;;17.50;73.10;;;;;;5053266;28;43416;-72
2022/11/21 02:29:33;;;;;;;1.07;1.07;;;17.50;73.20;;;;;;5055279;28;43363;-73
2022/11/21 02:32:04;;;;;;;1.00;1.00;;;17.40;73.30;;;;;;5038555;28;43758;-72
2022/11/21 02:34:32;;;;;;;0.90;0.90;;;17.40;73.60;;;;;;5059765;28;43920;-73
2022/11/21 02:37:00;;;;;;;1.10;1.10;;;17.40;73.40;;;;;;5062978;28;43400;-72
2022/11/21 02:39:30;;;;;;;0.90;0.90;;;17.40;73.30;;;;;;5056927;28;43407;-73
2022/11/21 02:42:01;;;;;;;0.90;0.90;;;17.40;73.30;;;;;;5036034;28;43416;-74
2022/11/21 02:44:32;;;;;;;0.90;0.90;;;17.40;73.30;;;;;;5057880;28;43598;-72
2022/11/21 02:47:00;;;;;;;1.00;1.00;;;17.40;73.50;;;;;;5034579;28;44677;-73
2022/11/21 02:49:34;;;;;;;1.10;1.10;;;17.40;73.80;;;;;;5054822;28;43412;-74
2022/11/21 02:52:02;;;;;;;0.70;0.70;;;17.50;73.70;;;;;;5036430;28;43771;-74
2022/11/21 02:54:30;;;;;;;0.90;0.90;;;17.60;73.20;;;;;;5057783;28;43604;-75
2022/11/21 02:56:58;;;;;;;0.80;0.80;;;17.70;72.80;;;;;;5055700;28;43759;-72
2022/11/21 02:59:26;;;;;;;0.90;0.90;;;17.70;72.60;;;;;;5052748;28;44078;-72
2022/11/21 03:01:58;;;;;;;0.90;0.90;;;17.70;72.50;;;;;;5055523;28;43471;-72
2022/11/21 03:04:26;;;;;;;0.93;0.93;;;17.60;72.90;;;;;;5041565;28;45776;-72
2022/11/21 03:06:54;;;;;;;0.80;0.80;;;17.60;72.90;;;;;;5055012;28;43463;-74
2022/11/21 03:09:22;;;;;;;1.00;1.00;;;17.60;72.80;;;;;;5053398;28;43380;-73
2022/11/21 03:11:50;;;;;;;0.80;0.80;;;17.60;72.70;;;;;;5058169;28;43456;-73
2022/11/21 03:14:18;;;;;;;0.80;0.80;;;17.50;72.80;;;;;;5045310;28;43623;-72
2022/11/21 03:16:46;;;;;;;0.90;0.90;;;17.50;72.90;;;;;;5033786;28;44801;-71
2022/11/21 03:19:15;;;;;;;0.80;0.80;;;17.50;73.20;;;;;;5037934;28;43446;-73
2022/11/21 03:21:43;;;;;;;0.80;0.80;;;17.50;73.50;;;;;;5053655;28;43917;-72
2022/11/21 03:24:11;;;;;;;1.00;1.00;;;17.50;73.30;;;;;;5052729;28;44125;-72
2022/11/21 03:26:39;;;;;;;0.87;0.87;;;17.50;73.20;;;;;;5037723;28;44734;-73
2022/11/21 03:29:07;;;;;;;0.80;0.80;;;17.40;74.00;;;;;;5053333;28;43419;-74
2022/11/21 03:31:35;;;;;;;0.80;0.80;;;17.40;73.30;;;;;;5059024;28;43421;-73
2022/11/21 03:34:03;;;;;;;0.90;0.90;;;17.40;73.50;;;;;;5055034;28;43800;-73
2022/11/21 03:36:33;;;;;;;0.93;0.93;;;17.40;73.90;;;;;;5035911;28;44753;-73
2022/11/21 03:39:01;;;;;;;0.80;0.80;;;17.50;73.60;;;;;;5054758;28;43497;-72
2022/11/21 03:41:31;;;;;;;0.70;0.70;;;17.60;73.20;;;;;;5037803;28;43544;-71
2022/11/21 03:44:00;;;;;;;0.90;0.90;;;17.70;72.80;;;;;;5037263;28;45840;-73
2022/11/21 03:46:28;;;;;;;0.77;0.77;;;17.70;72.50;;;;;;5036386;28;44757;-72
2022/11/21 03:48:56;;;;;;;0.90;0.90;;;17.70;72.60;;;;;;5053578;28;43382;-72
2022/11/21 03:51:24;;;;;;;0.80;0.80;;;17.60;72.90;;;;;;5061665;28;44137;-73
2022/11/21 03:53:53;;;;;;;0.80;0.80;;;17.60;72.80;;;;;;5056638;28;43838;-72
2022/11/21 03:56:21;;;;;;;0.90;0.90;;;17.60;72.70;;;;;;5047974;28;43475;-73
2022/11/21 03:58:49;;;;;;;0.80;0.80;;;17.60;72.80;;;;;;5052873;28;43488;-73
2022/11/21 04:01:17;;;;;;;0.80;0.80;;;17.50;72.80;;;;;;5052115;28;44201;-73
2022/11/21 04:03:45;;;;;;;0.83;0.83;;;17.50;73.00;;;;;;5062089;28;43858;-73
2022/11/21 04:06:14;;;;;;;0.80;0.80;;;17.50;73.50;;;;;;5043918;28;44797;-72
2022/11/21 04:08:42;;;;;;;1.00;1.00;;;17.50;73.40;;;;;;5056943;28;43522;-73
2022/11/21 04:11:14;;;;;;;0.80;0.80;;;17.50;73.20;;;;;;5054468;28;43455;-72
2022/11/21 04:13:42;;;;;;;0.80;0.80;;;17.50;73.20;;;;;;5057879;28;43821;-72
2022/11/21 04:16:10;;;;;;;0.70;0.70;;;17.40;73.20;;;;;;5055042;28;44056;-72
2022/11/21 04:18:38;;;;;;;0.93;0.93;;;17.40;73.30;;;;;;5053633;28;43425;-72
2022/11/21 04:21:07;;;;;;;0.80;0.80;;;17.40;73.70;;;;;;5056221;28;44091;-74
2022/11/21 04:23:34;;;;;;;0.73;0.73;;;17.40;73.70;;;;;;5053728;28;43671;-72
2022/11/21 04:26:03;;;;;;;1.00;1.00;;;17.50;73.40;;;;;;5048526;28;43403;-71
2022/11/21 04:28:32;;;;;;;0.70;0.70;;;17.60;73.00;;;;;;5053389;28;43419;-73
2022/11/21 04:31:04;;;;;;;0.80;0.80;;;17.70;72.70;;;;;;5063641;28;43523;-72
2022/11/21 04:33:37;;;;;;;0.80;0.80;;;17.60;72.60;;;;;;5068530;28;43681;-74
2022/11/21 04:36:06;;;;;;;0.97;0.97;;;17.60;72.90;;;;;;5062236;28;43414;-73
2022/11/21 04:38:34;;;;;;;0.90;0.90;;;17.60;73.00;;;;;;5057806;28;43499;-72
2022/11/21 04:41:02;;;;;;;0.90;0.90;;;17.60;72.90;;;;;;5049143;28;43440;-72
2022/11/21 04:43:31;;;;;;;0.83;0.83;;;17.50;72.90;;;;;;5046630;28;45272;-72
2022/11/21 04:45:59;;;;;;;0.90;0.90;;;17.50;72.90;;;;;;5066771;28;43411;-71
2022/11/21 04:48:27;;;;;;;1.10;1.10;;;17.50;73.10;;;;;;5062565;28;43975;-73
2022/11/21 04:50:55;;;;;;;1.07;1.07;;;17.40;73.20;;;;;;5065327;28;43438;-73
2022/11/21 04:53:23;;;;;;;1.27;1.27;;;17.40;73.40;;;;;;5056700;28;43797;-74
2022/11/21 04:55:51;;;;;;;1.07;1.07;;;17.40;73.30;;;;;;5043576;28;44708;-72
2022/11/21 04:58:19;;;;;;;0.90;0.90;;;17.40;73.20;;;;;;5058012;28;43446;-72
2022/11/21 05:00:48;;;;;;;1.10;1.10;;;17.40;73.20;;;;;;5042263;28;44076;-74
2022/11/21 05:03:16;;;;;;;1.10;1.10;;;17.40;73.30;;;;;;5065056;28;43604;-72
2022/11/21 05:05:44;;;;;;;1.67;1.57;;;17.40;73.40;;;;;;5057427;28;43419;-72
2022/11/21 05:08:12;;;;;;;2.20;1.80;;;17.40;73.80;;;;;;5057361;28;43411;-73
2022/11/21 05:13:22;;;;;;;2.67;1.83;;;17.60;73.20;;;;;;5062485;28;43941;-72
2022/11/21 05:15:56;;;;;;;2.20;1.80;;;17.80;72.70;;;;;;5040766;28;44609;-73
2022/11/21 05:18:24;;;;;;;2.17;1.97;;;17.80;72.20;;;;;;5062839;28;43396;-73
2022/11/21 05:20:52;;;;;;;2.30;1.90;;;17.80;72.10;;;;;;5038958;28;43551;-75
2022/11/21 05:23:20;;;;;;;1.90;1.80;;;17.70;72.00;;;;;;5057435;28;44005;-74
2022/11/21 05:25:48;;;;;;;2.20;2.10;;;17.70;72.20;;;;;;5059100;28;43422;-72
2022/11/21 05:28:16;;;;;;;2.00;1.90;;;17.60;72.40;;;;;;5044750;28;43455;-74
2022/11/21 05:30:44;;;;;;;1.73;1.63;;;17.50;72.60;;;;;;5062754;28;43404;-73
2022/11/21 05:33:13;;;;;;;2.10;2.00;;;17.50;73.20;;;;;;5065078;28;43880;-75
2022/11/21 05:35:41;;;;;;;2.30;2.10;;;17.50;73.20;;;;;;5062824;28;43384;-72
2022/11/21 05:38:10;;;;;;;2.30;2.10;;;17.50;73.20;;;;;;5060932;28;43401;-73
2022/11/21 05:40:38;;;;;;;1.80;1.70;;;17.40;73.10;;;;;;5067231;28;43444;-74
2022/11/21 05:45:52;;;;;;;2.40;2.10;;;17.40;73.30;;;;;;5050554;28;43378;-73
2022/11/21 05:48:21;;;;;;;3.27;2.43;;;17.30;73.70;;;;;;5060721;28;43388;-74
2022/11/21 05:50:49;;;;;;;2.33;2.13;;;17.30;73.60;;;;;;5055667;28;43449;-72
2022/11/21 05:53:17;;;;;;;1.97;1.87;;;17.30;73.40;;;;;;5058209;28;44020;-73
2022/11/21 05:55:45;;;;;;;2.40;2.20;;;17.30;73.40;;;;;;5058720;28;43479;-71
2022/11/21 05:58:13;;;;;;;2.00;1.80;;;17.30;74.10;;;;;;5055829;28;43400;-73
2022/11/21 06:00:41;;;;;;;2.50;2.30;;;17.30;73.50;;;;;;5062060;28;43352;-73
2022/11/21 06:03:27;;;;;;;2.33;2.13;;;17.30;73.80;;;;;;5048879;28;43580;-72
2022/11/21 06:06:00;;;;;;;2.57;2.37;;;17.40;74.00;;;;;;5037263;28;44412;-74
2022/11/21 06:08:29;;;;;;;3.20;2.30;;;17.50;73.50;;;;;;5059367;28;43455;-73
2022/11/21 06:10:57;;;;;;;2.27;2.17;;;17.60;73.00;;;;;;5040853;28;43492;-73
2022/11/21 06:13:25;;;;;;;2.63;2.43;;;17.80;72.50;;;;;;5058605;28;43592;-72
2022/11/21 06:15:55;;;;;;;2.37;2.17;;;17.80;72.10;;;;;;5062011;28;43726;-74
2022/11/21 06:18:23;;;;;;;2.43;2.23;;;17.80;72.00;;;;;;5051824;28;43436;-74
2022/11/21 06:20:51;;;;;;;2.07;1.93;;;17.80;72.10;;;;;;5060105;28;43413;-73
2022/11/21 06:23:21;;;;;;;3.20;2.20;;;17.70;72.10;;;;;;5060099;28;43852;-72
2022/11/21 06:25:52;;;;;;;2.30;2.10;;;17.60;72.30;;;;;;5039435;28;44281;-72
2022/11/21 06:28:20;;;;;;;2.00;1.90;;;17.60;72.50;;;;;;5036828;28;44236;-72
2022/11/21 06:30:50;;;;;;;2.23;2.10;;;17.50;73.00;;;;;;5062203;28;43418;-72
2022/11/21 06:33:18;;;;;;;2.13;1.93;;;17.50;73.00;;;;;;5058852;28;43983;-72
2022/11/21 06:35:46;;;;;;;2.10;2.00;;;17.50;72.90;;;;;;5054440;28;43421;-71
2022/11/21 06:38:17;;;;;;;1.50;1.50;;;17.50;73.00;;;;;;5040170;28;43462;-71
2022/11/21 06:40:46;;;;;;;1.90;1.80;;;17.50;73.10;;;;;;5064279;28;43547;-73
2022/11/21 06:43:14;;;;;;;1.87;1.73;;;17.40;73.10;;;;;;5057930;28;43908;-73
2022/11/21 06:45:42;;;;;;;2.00;1.90;;;17.40;73.50;;;;;;5050886;28;43404;-72
2022/11/21 06:48:10;;;;;;;2.27;2.17;;;17.40;73.30;;;;;;5055895;28;44026;-71
2022/11/21 06:50:38;;;;;;;1.70;1.60;;;17.40;73.30;;;;;;5041853;28;43452;-73
2022/11/21 06:53:06;;;;;;;1.90;1.80;;;17.40;73.30;;;;;;5057097;28;44046;-74
2022/11/21 06:55:34;;;;;;;1.97;1.87;;;17.40;73.30;;;;;;5046620;28;43395;-73
2022/11/21 06:58:03;;;;;;;2.07;1.97;;;17.40;73.40;;;;;;5056349;28;43400;-74
2022/11/21 07:00:31;;;;;;;2.10;1.90;;;17.30;73.60;;;;;;5056029;28;43467;-73
2022/11/21 07:03:00;;;;;;;1.90;1.80;;;17.40;73.80;;;;;;5056360;28;43857;-74
2022/11/21 07:05:30;;;;;;;2.07;1.90;;;17.50;73.50;;;;;;5029701;28;44738;-72
2022/11/21 07:07:59;;;;;;;1.70;1.60;;;17.60;73.00;;;;;;5036149;28;43462;-72
2022/11/21 07:10:27;;;;;;;2.13;1.93;;;17.70;72.70;;;;;;5061823;28;43491;-73
2022/11/21 07:15:44;;;;;;;1.77;1.77;;;17.60;72.70;;;;;;5050938;28;43452;-73
2022/11/21 07:18:12;;;;;;;1.80;1.70;;;17.60;72.80;;;;;;5055922;28;43459;-72
2022/11/21 07:20:40;;;;;;;1.70;1.60;;;17.60;72.60;;;;;;5035288;28;43492;-72
2022/11/21 07:23:08;;;;;;;1.73;1.63;;;17.60;72.60;;;;;;5058611;28;43932;-73
2022/11/21 07:25:36;;;;;;;1.93;1.83;;;17.50;72.70;;;;;;5055477;28;43457;-73
2022/11/21 07:28:04;;;;;;;1.60;1.50;;;17.50;72.90;;;;;;5057235;28;43429;-72
2022/11/21 07:30:32;;;;;;;1.70;1.60;;;17.50;73.10;;;;;;5052767;28;43452;-71
2022/11/21 07:33:03;;;;;;;1.47;1.40;;;17.50;73.40;;;;;;5054847;28;43762;-71
2022/11/21 07:35:31;;;;;;;1.60;1.60;;;17.50;73.90;;;;;;5055529;28;43993;-72
2022/11/21 07:37:59;;;;;;;1.80;1.70;;;17.50;73.20;;;;;;5058877;28;43544;-72
2022/11/21 07:40:27;;;;;;;1.63;1.53;;;17.40;73.00;;;;;;5055039;28;44001;-71
2022/11/21 07:43:00;;;;;;;1.40;1.40;;;17.40;73.10;;;;;;5051322;28;43599;-74
2022/11/21 07:45:28;;;;;;;1.90;1.80;;;17.40;72.80;;;;;;5052182;28;43427;-72
2022/11/21 07:47:59;;;;;;;1.67;1.67;;;17.40;73.70;;;;;;5038532;28;43446;-74
2022/11/21 07:50:28;;;;;;;1.80;1.73;;;17.50;73.50;;;;;;5038709;28;43491;-74
2022/11/21 07:52:59;;;;;;;1.67;1.57;;;17.60;73.00;;;;;;5054395;28;43670;-73
2022/11/21 07:55:28;;;;;;;1.50;1.50;;;17.70;72.70;;;;;;5054438;28;43436;-72
2022/11/21 07:57:59;;;;;;;1.60;1.50;;;17.70;72.50;;;;;;5055212;28;43396;-74
2022/11/21 08:00:28;;;;;;;1.73;1.63;;;17.60;72.50;;;;;;5061950;28;43381;-73
2022/11/21 08:02:55;;;;;;;1.30;1.30;;;17.60;73.00;;;;;;5055393;28;44001;-73
2022/11/21 08:05:23;;;;;;;1.47;1.47;;;17.60;72.80;;;;;;5051406;28;43995;-72
2022/11/21 08:07:53;;;;;;;1.80;1.70;;;17.60;72.70;;;;;;5060867;28;43474;-74
2022/11/21 08:10:21;;;;;;;1.57;1.57;;;17.60;72.80;;;;;;5049129;28;43475;-72
2022/11/21 08:12:49;;;;;;;1.90;1.80;;;17.50;72.90;;;;;;5063409;28;43936;-73
2022/11/21 08:15:17;;;;;;;1.70;1.70;;;17.50;73.00;;;;;;5052783;28;43484;-72
2022/11/21 08:17:45;;;;;;;1.53;1.53;;;17.50;73.40;;;;;;5053283;28;43453;-72
2022/11/21 08:20:13;;;;;;;1.60;1.60;;;17.50;73.30;;;;;;5063974;28;43447;-73
2022/11/21 08:22:41;;;;;;;1.70;1.60;;;17.50;73.20;;;;;;5058719;28;43912;-73
2022/11/21 08:25:11;;;;;;;1.90;1.80;;;17.50;73.20;;;;;;5051384;28;43416;-74
2022/11/21 08:27:39;;;;;;;1.60;1.50;;;17.40;73.10;;;;;;5051919;28;43384;-74
2022/11/21 08:30:09;;;;;;;1.50;1.50;;;17.40;73.20;;;;;;5040234;28;43520;-73
2022/11/21 08:32:36;;;;;;;1.60;1.60;;;17.40;73.60;;;;;;5037997;28;46216;-72
2022/11/21 08:35:05;;;;;;;1.60;1.50;;;17.50;73.70;;;;;;5052495;28;43413;-73
2022/11/21 08:37:33;;;;;;;1.23;1.23;;;17.50;73.40;;;;;;5051810;28;43503;-72
2022/11/21 08:40:01;;;;;;;1.30;1.30;;;17.60;72.90;;;;;;5050990;28;43460;-73
2022/11/21 08:42:30;;;;;;;1.50;1.50;;;17.70;72.60;;;;;;5056136;28;43739;-72
2022/11/21 08:44:58;;;;;;;1.50;1.40;;;17.70;72.30;;;;;;5059342;28;43419;-73
2022/11/21 08:47:26;;;;;;;1.70;1.70;;;17.70;72.50;;;;;;5051390;28;43447;-73
2022/11/21 08:49:54;;;;;;;1.57;1.57;;;17.70;72.90;;;;;;5059649;28;43566;-72
2022/11/21 08:52:22;;;;;;;1.33;1.33;;;17.60;72.60;;;;;;5047341;28;43902;-73
2022/11/21 08:54:50;;;;;;;1.60;1.60;;;17.60;72.50;;;;;;5046189;28;43499;-73
2022/11/21 08:57:18;;;;;;;1.37;1.27;;;17.60;72.60;;;;;;5058353;28;43405;-72
2022/11/21 08:59:47;;;;;;;1.20;1.20;;;17.50;72.70;;;;;;5051014;28;43361;-73
2022/11/21 09:02:15;;;;;;;1.40;1.40;;;17.50;72.90;;;;;;5055059;28;43810;-73
2022/11/21 09:04:43;;;;;;;1.30;1.30;;;17.50;73.40;;;;;;5047992;28;43451;-72
2022/11/21 09:07:11;;;;;;;1.53;1.53;;;17.50;73.20;;;;;;5047883;28;43416;-72
2022/11/21 09:09:39;;;;;;;1.30;1.30;;;17.50;73.10;;;;;;5047778;28;43468;-72
2022/11/21 09:12:07;;;;;;;1.50;1.50;;;17.50;73.20;;;;;;5046773;28;43770;-72
2022/11/21 09:20:08;;;;;;;1.30;1.30;;;17.40;73.60;;;;;;5059123;28;43420;-72
2022/11/21 09:22:36;;;;;;;1.40;1.40;;;17.40;73.70;;;;;;5061619;28;43844;-73
2022/11/21 09:25:05;;;;;;;1.33;1.33;;;17.50;73.40;;;;;;5038619;28;44684;-72
2022/11/21 09:27:33;;;;;;;1.60;1.50;;;17.60;72.90;;;;;;5059213;28;43427;-74
2022/11/21 09:30:01;;;;;;;1.40;1.40;;;17.70;72.70;;;;;;5051390;28;43499;-74
2022/11/21 09:32:30;;;;;;;1.23;1.23;;;17.70;72.50;;;;;;5054820;28;44016;-73
2022/11/21 09:34:58;;;;;;;1.60;1.60;;;17.60;72.60;;;;;;5055483;28;43396;-74
2022/11/21 09:37:26;;;;;;;1.50;1.50;;;17.60;72.90;;;;;;5039392;28;43424;-74
2022/11/21 09:39:54;;;;;;;1.20;1.20;;;17.60;72.80;;;;;;5055956;28;43474;-72
2022/11/21 09:42:46;;;;;;;1.43;1.43;;;17.60;72.80;;;;;;5054934;28;43928;-73
2022/11/21 09:45:15;;;;;;;1.30;1.30;;;17.50;72.70;;;;;;5052250;28;43395;-73
2022/11/21 09:47:45;;;;;;;1.27;1.27;;;17.50;72.90;;;;;;5041555;28;43496;-73
2022/11/21 09:50:24;;;;;;;1.63;1.63;;;17.50;73.10;;;;;;5056832;28;43474;-72
2022/11/21 09:52:54;;;;;;;1.40;1.40;;;17.50;73.30;;;;;;5063692;28;43550;-72
2022/11/21 09:55:26;;;;;;;1.57;1.57;;;17.50;73.90;;;;;;5051880;28;43970;-73
2022/11/21 09:57:54;;;;;;;1.50;1.50;;;17.50;73.20;;;;;;5055631;28;43439;-73
2022/11/21 10:00:23;;;;;;;1.30;1.30;;;17.40;73.20;;;;;;5060679;28;43409;-73
2022/11/21 10:02:53;;;;;;;1.20;1.20;;;17.40;73.30;;;;;;5056465;28;43904;-72
2022/11/21 10:05:25;;;;;;;1.30;1.30;;;17.40;73.50;;;;;;5037077;28;44657;-72
2022/11/21 10:07:53;;;;;;;1.30;1.30;;;17.40;73.70;;;;;;5056838;28;43986;-72
2022/11/21 10:10:28;;;;;;;1.57;1.47;;;17.50;73.50;;;;;;5060326;28;44181;-72
2022/11/21 10:13:10;;;;;;;1.20;1.20;;;17.60;73.00;;;;;;5030289;28;45681;-73
2022/11/21 10:15:46;;;;;;;1.30;1.30;;;17.60;72.70;;;;;;5053475;28;43448;-73
2022/11/21 10:18:31;;;;;;;1.40;1.30;;;17.60;72.60;;;;;;5051715;28;43444;-74
2022/11/21 10:21:02;;;;;;;1.20;1.20;;;17.50;72.90;;;;;;5052994;28;43783;-73
2022/11/21 10:24:06;;;;;;;1.77;1.67;;;17.50;73.20;;;;;;5059240;28;43921;-72
2022/11/21 10:26:39;;;;;;;1.30;1.30;;;17.50;72.90;;;;;;5054276;28;43398;-73
2022/11/21 10:29:10;;;;;;;1.30;1.30;;;17.50;72.90;;;;;;5055989;28;43431;-71
2022/11/21 10:31:39;;;;;;;1.37;1.37;;;17.50;73.00;;;;;;5048772;28;43424;-71
2022/11/21 10:34:11;;;;;;;1.37;1.30;;;17.50;73.20;;;;;;5060719;28;43844;-73
2022/11/21 10:36:39;;;;;;;1.30;1.30;;;17.40;73.50;;;;;;5058158;28;43427;-71
2022/11/21 10:39:13;;;;;;;1.53;1.53;;;17.40;73.60;;;;;;5048578;28;43396;-72
2022/11/21 10:41:44;;;;;;;1.20;1.20;;;17.50;73.30;;;;;;5048945;28;43463;-73
2022/11/21 10:47:02;;;;;;;1.30;1.20;;;17.60;72.80;;;;;;5048363;28;43497;-73
2022/11/21 10:49:33;;;;;;;1.10;1.10;;;17.50;72.80;;;;;;5037469;28;43951;-73
2022/11/21 10:52:04;;;;;;;1.50;1.40;;;17.50;73.10;;;;;;5037564;28;44037;-72
2022/11/21 10:54:32;;;;;;;1.20;1.20;;;17.50;73.20;;;;;;5059941;28;43818;-74
2022/11/21 10:57:02;;;;;;;1.30;1.20;;;17.50;73.20;;;;;;5055627;28;43426;-74
2022/11/21 10:59:30;;;;;;;1.30;1.30;;;17.50;73.10;;;;;;5033469;28;43402;-72
2022/11/21 11:01:59;;;;;;;1.40;1.40;;;17.50;73.20;;;;;;5060520;28;43539;-73
2022/11/21 11:04:28;;;;;;;1.23;1.23;;;17.40;73.30;;;;;;5058929;28;43847;-72
2022/11/21 11:07:19;;;;;;;1.20;1.20;;;17.40;73.50;;;;;;5054045;28;43481;-73
2022/11/21 11:09:47;;;;;;;1.40;1.40;;;17.40;73.80;;;;;;5059603;28;43424;-72
2022/11/21 11:15:17;;;;;;;1.40;1.40;;;17.50;73.00;;;;;;5052066;28;43928;-74
2022/11/21 11:17:45;;;;;;;1.60;1.50;;;17.50;72.90;;;;;;5058312;28;43468;-75
2022/11/21 11:20:31;;;;;;;1.23;1.23;;;17.50;72.90;;;;;;5039568;28;43453;-74
2022/11/21 11:23:00;;;;;;;1.47;1.47;;;17.50;73.40;;;;;;5055317;28;43420;-73
2022/11/21 11:25:28;;;;;;;1.20;1.20;;;17.50;73.40;;;;;;5034276;28;46166;-73
2022/11/21 11:27:56;;;;;;;1.30;1.30;;;17.50;73.20;;;;;;5050052;28;43950;-74
2022/11/21 11:30:27;;;;;;;1.10;1.10;;;17.40;73.10;;;;;;5055194;28;43611;-74
2022/11/21 11:32:55;;;;;;;1.13;1.13;;;17.40;73.30;;;;;;5059042;28;43321;-73
2022/11/21 11:35:32;;;;;;;1.43;1.43;;;17.40;73.30;;;;;;5038965;28;46091;-72
2022/11/21 11:38:02;;;;;;;1.23;1.23;;;17.40;73.70;;;;;;5054688;28;43588;-72
2022/11/21 11:40:32;;;;;;;1.50;1.50;;;17.40;73.70;;;;;;5053668;28;43988;-73
2022/11/21 11:49:18;;;;;;;1.20;1.20;;;17.40;73.60;;;;;;5062269;28;43321;-73
2022/11/21 11:51:50;;;;;;;1.57;1.47;;;17.30;73.50;;;;;;5037730;28;43883;-73
2022/11/21 11:54:21;;;;;;;1.30;1.30;;;17.30;73.90;;;;;;5038209;28;43501;-72
2022/11/21 11:56:49;;;;;;;1.10;1.10;;;17.40;73.90;;;;;;5053878;28;43856;-73
2022/11/21 11:59:20;;;;;;;1.30;1.30;;;17.50;73.50;;;;;;5053903;28;43951;-72
2022/11/21 12:01:50;;;;;;;1.20;1.20;;;17.70;73.10;;;;;;5059534;28;43405;-71
2022/11/21 12:04:19;;;;;;;1.50;1.40;;;17.70;72.50;;;;;;5054354;28;43424;-73
2022/11/21 12:06:51;;;;;;;1.23;1.23;;;17.80;72.30;;;;;;5034308;28;45628;-72
2022/11/21 12:09:41;;;;;;;1.10;1.10;;;17.80;72.20;;;;;;5051724;28;43494;-72
2022/11/21 12:12:11;;;;;;;1.23;1.23;;;17.70;72.30;;;;;;5054427;28;43435;-73
2022/11/21 12:17:35;;;;;;;1.10;1.10;;;17.50;72.70;;;;;;5050442;28;45106;-72
2022/11/21 12:20:05;;;;;;;1.20;1.20;;;17.50;73.20;;;;;;5052225;28;43422;-74
2022/11/21 12:22:33;;;;;;;1.50;1.50;;;17.40;73.30;;;;;;5061255;28;43778;-72
2022/11/21 12:25:02;;;;;;;1.30;1.30;;;17.40;73.20;;;;;;5055909;28;43431;-72
2022/11/21 12:27:31;;;;;;;1.20;1.20;;;17.40;73.20;;;;;;5054438;28;43918;-73
2022/11/21 12:30:20;;;;;;;1.23;1.23;;;17.40;73.30;;;;;;5057874;28;43464;-73
2022/11/21 12:32:56;;;;;;;1.10;1.10;;;17.40;73.50;;;;;;5048575;28;43423;-74
2022/11/21 12:35:54;;;;;;;1.20;1.20;;;17.30;73.70;;;;;;5054842;28;43404;-73
2022/11/21 12:39:23;;;;;;;1.10;1.10;;;17.30;73.60;;;;;;5032402;28;45631;-73
2022/11/21 12:44:51;;;;;;;1.17;1.17;;;17.30;73.50;;;;;;5048599;28;43404;-74
2022/11/21 12:47:28;;;;;;;1.00;1.00;;;17.30;73.60;;;;;;5037742;28;44117;-72
2022/11/21 12:55:36;;;;;;;1.10;1.10;;;17.40;74.00;;;;;;5057222;28;43436;-73
2022/11/21 12:58:17;;;;;;;1.17;1.17;;;17.50;73.40;;;;;;5056018;28;43848;-73
2022/11/21 13:00:58;;;;;;;1.23;1.23;;;17.70;72.80;;;;;;5055865;28;43908;-73
2022/11/21 13:03:39;;;;;;;1.43;1.30;;;17.80;72.40;;;;;;5059105;28;43414;-73
2022/11/21 13:06:13;;;;;;;1.40;1.40;;;17.80;72.30;;;;;;5060068;28;43515;-73
2022/11/21 13:08:41;;;;;;;1.37;1.37;;;17.70;72.30;;;;;;5040012;28;43515;-74
2022/11/21 13:14:03;;;;;;;1.10;1.10;;;17.50;72.70;;;;;;5051186;28;43382;-73
2022/11/21 13:16:43;;;;;;;1.23;1.23;;;17.40;72.90;;;;;;5061001;28;43966;-72
2022/11/21 13:19:17;;;;;;;1.10;1.10;;;17.40;73.40;;;;;;5049831;28;43435;-73
2022/11/21 13:21:47;;;;;;;1.30;1.30;;;17.40;73.40;;;;;;5058908;28;43748;-73
2022/11/21 13:24:48;;;;;;;1.33;1.33;;;17.40;73.30;;;;;;5042009;28;44702;-73
2022/11/21 13:27:26;;;;;;;1.20;1.20;;;17.40;73.30;;;;;;5059516;28;43442;-73
2022/11/21 13:30:21;;;;;;;1.40;1.30;;;17.40;73.40;;;;;;5058899;28;43394;-73
2022/11/21 13:32:50;;;;;;;1.30;1.30;;;17.30;73.50;;;;;;5051264;28;43921;-74
2022/11/21 13:36:04;;;;;;;1.20;1.20;;;17.30;73.90;;;;;;5052948;28;43383;-72
2022/11/21 13:38:33;;;;;;;1.23;1.23;;;17.40;73.80;;;;;;5054445;28;43817;-72
2022/11/21 13:43:46;;;;;;;1.20;1.20;;;17.50;73.00;;;;;;5034617;28;43918;-73
2022/11/21 13:46:38;;;;;;;1.20;1.20;;;17.50;72.90;;;;;;5032345;28;43573;-72